Date,TemperatureHighF,TemperatureAvgF,TemperatureLowF,DewpointHighF,DewpointAvgF,DewpointLowF,HumidityHigh,HumidityAvg,HumidityLow,PressureMaxIn,PressureMinIn,WindSpeedMaxMPH,WindSpeedAvgMPH,GustSpeedMaxMPH,PrecipitationSumIn
2012-1-1,40,34,27,37,28,17,96,79,66,30.09,29.50,24,12,37,0.11
2012-1-2,26,21,16,19,12,7,78,66,54,30.45,30.08,16,7,32,0.01
2012-1-3,28,20,10,18,10,5,82,67,45,30.46,30.00,10,2,20,0.00
2012-1-4,40,31,23,28,22,17,86,70,54,30.08,29.93,9,2,16,0.00
2012-1-5,50,38,27,36,30,23,89,74,57,30.03,29.67,6,1,16,0.00
2012-1-6,55,43,36,37,33,30,84,68,47,29.81,29.65,5,2,13,0.00
2012-1-7,42,34,26,30,27,22,91,76,56,30.25,29.81,7,3,17,0.00
2012-1-8,42,29,19,29,24,17,95,84,56,30.37,30.24,3,0,8,0.00
2012-1-9,46,35,25,33,29,24,96,80,58,30.28,29.93,11,3,25,0.01
2012-1-10,53,39,26,35,31,24,93,74,49,30.04,29.76,3,0,10,0.01
2012-1-11,55,40,28,35,29,25,88,67,37,29.76,29.53,3,1,8,0.00
2012-1-12,37,25,16,34,22,14,93,90,84,29.63,29.42,10,5,25,0.00
2012-1-13,21,17,15,16,14,11,91,84,78,30.07,29.63,10,6,20,0.00
2012-1-14,17,14,10,13,9,7,88,81,73,30.28,30.06,7,2,12,0.00
2012-1-15,30,24,13,27,19,10,92,84,80,30.33,29.97,16,7,28,0.00
2012-1-16,44,36,29,37,32,26,90,84,74,29.97,29.70,10,2,20,0.01
2012-1-17,37,26,11,34,23,7,96,88,78,30.27,29.62,10,5,23,0.01
2012-1-18,24,15,1,19,10,-2,91,81,64,30.30,29.82,10,2,20,0.00
2012-1-19,26,10,-1,21,0,-9,86,63,47,30.25,29.79,13,5,25,0.00
2012-1-20,10,6,-2,7,0,-11,89,76,57,30.29,30.14,5,2,13,0.00
2012-1-21,23,14,5,16,9,1,89,80,70,30.32,30.10,8,3,17,0.05
2012-1-22,22,21,16,21,19,12,94,92,80,30.10,29.90,13,12,22,0.02
2012-1-23,22,22,22,21,21,21,94,94,94,29.91,29.91,13,13,13,0.00
2012-1-24,22,22,22,21,21,21,94,94,94,29.91,29.91,13,13,13,0.00
2012-1-25,30,24,22,29,22,21,95,93,87,30.14,29.91,13,10,14,0.00
2012-1-26,38,33,30,35,32,29,100,96,89,30.06,29.66,9,2,18,0.00
2012-1-27,37,34,28,32,28,24,95,81,66,29.95,29.68,6,3,15,0.00
2012-1-28,33,28,22,32,22,16,96,78,56,30.09,29.80,17,9,31,0.00
2012-1-29,28,24,16,27,19,11,95,81,66,30.25,29.92,12,4,22,0.00
2012-1-30,49,36,18,38,29,14,84,75,64,30.22,29.80,13,4,23,0.00
2012-1-31,54,47,38,49,43,34,93,84,78,29.90,29.72,6,2,20,0.00
2012-2-1,41,36,29,37,33,27,97,91,83,30.18,29.90,6,2,12,0.00
2012-2-2,34,30,27,34,29,26,98,97,95,30.43,30.17,6,1,10,0.00
2012-2-3,35,31,28,33,30,27,98,96,91,30.50,30.35,5,3,10,0.00
2012-2-4,44,36,28,34,31,25,94,81,57,30.37,30.19,9,3,20,0.01
2012-2-5,42,32,26,33,28,24,96,85,67,30.33,30.21,8,2,14,0.01
2012-2-6,33,30,28,30,28,27,97,92,84,30.25,30.12,11,5,18,0.00
2012-2-7,33,30,24,31,26,18,94,84,73,30.44,30.19,11,4,21,0.00
2012-2-8,34,25,15,20,18,13,93,74,49,30.44,30.32,9,3,15,0.00
2012-2-9,35,27,17,26,20,15,92,76,49,30.31,30.06,12,4,22,0.00
2012-2-10,33,24,12,30,20,3,94,84,64,30.32,29.92,10,4,25,0.00
2012-2-11,22,14,8,4,1,-2,71,55,41,30.46,30.32,12,6,25,0.00
2012-2-12,34,24,15,12,8,2,66,51,35,30.40,30.27,12,7,21,0.00
2012-2-13,27,27,27,10,10,10,49,49,49,30.27,30.27,5,5,5,0.00
2012-2-14,27,27,27,10,10,10,49,49,49,30.27,30.27,5,5,5,0.00
2012-2-15,27,27,27,10,10,10,49,49,49,30.27,30.27,5,5,5,0.00
2012-2-16,45,33,27,31,18,10,78,55,46,30.27,30.06,13,6,25,0.01
2012-2-17,48,35,24,36,28,21,92,76,61,30.14,29.97,9,3,20,0.01
2012-2-18,38,32,25,28,23,19,89,70,45,30.24,30.03,7,2,14,0.00
2012-2-19,36,30,18,28,23,16,93,75,63,30.24,30.20,5,2,9,0.00
2012-2-20,36,36,36,25,25,25,64,64,64,30.22,30.22,3,3,3,0.00
2012-2-21,36,36,36,25,25,25,64,64,64,30.22,30.22,3,3,3,0.00
2012-2-22,36,36,36,25,25,25,64,64,64,30.22,30.22,3,3,3,0.00
2012-2-23,36,36,36,25,25,25,64,64,64,30.22,30.22,3,3,3,0.00
2012-2-24,36,36,36,25,25,25,64,64,64,30.22,30.22,3,3,3,0.00
2012-2-25,36,36,36,25,25,25,64,64,64,30.22,30.22,3,3,3,0.00
2012-2-26,36,36,36,25,25,25,64,64,64,30.22,30.22,3,3,3,0.00
2012-2-27,36,36,36,25,25,25,64,64,64,30.22,30.22,3,3,3,0.00
2012-2-28,36,36,36,25,25,25,64,64,64,30.22,30.22,3,3,3,0.00
2012-2-29,36,36,36,25,25,25,64,64,64,30.22,30.22,3,3,3,0.00
2012-3-1,36,36,36,25,25,25,64,64,64,30.22,30.22,3,3,3,0.00
2012-3-2,36,36,36,25,25,25,64,64,64,30.22,30.22,3,3,3,0.00
2012-3-3,36,36,36,25,25,25,64,64,64,30.22,30.22,3,3,3,0.00
2012-3-4,36,36,36,25,25,25,64,64,64,30.22,30.22,3,3,3,0.00
2012-3-5,36,36,36,25,25,25,64,64,64,30.22,30.22,3,3,3,0.00
2012-3-6,36,36,36,25,25,25,64,64,64,30.22,30.22,3,3,3,0.00
2012-3-7,36,36,36,25,25,25,64,64,64,30.22,30.22,3,3,3,0.00
2012-3-8,42,36,35,28,25,22,69,63,46,30.22,30.13,13,5,23,0.40
2012-3-9,39,32,27,28,12,6,71,44,30,30.55,30.17,12,5,23,0.00
2012-3-10,61,44,28,34,25,-100,71,51,32,30.48,30.14,10,4,28,0.00
2012-3-11,65,54,39,43,34,29,69,49,31,30.22,29.98,12,3,21,0.00
2012-3-12,59,59,59,43,43,43,55,55,55,29.98,29.98,10,10,13,0.00
2012-3-13,59,59,59,43,43,43,55,55,55,29.98,29.98,10,10,13,0.00
2012-3-14,71,60,59,62,46,43,85,59,55,29.98,29.88,10,9,13,0.00
2012-3-15,81,69,60,64,58,52,95,72,41,29.96,29.86,6,2,15,0.00
2012-3-16,80,64,48,65,56,46,97,76,55,30.01,29.93,6,1,14,0.00
2012-3-17,80,68,59,67,60,55,95,76,57,30.02,29.88,9,3,16,0.16
2012-3-18,80,69,56,64,59,53,89,71,51,29.99,29.85,10,2,21,0.08
2012-3-19,75,68,63,65,62,60,97,81,68,29.95,29.81,13,5,23,0.25
2012-3-20,82,72,64,62,54,-100,75,56,34,29.97,29.83,11,4,24,0.01
2012-3-21,83,73,65,62,57,53,74,58,37,30.04,29.95,10,3,20,0.00
2012-3-22,79,69,63,63,57,-100,93,69,50,30.03,29.97,7,-4,17,0.05
2012-3-23,66,62,56,62,59,54,96,91,84,29.98,29.76,8,3,14,0.16
2012-3-24,66,59,54,58,56,53,98,90,72,29.93,29.77,5,1,14,0.12
2012-3-25,74,62,48,60,55,39,96,79,50,30.15,29.93,8,2,17,0.00
2012-3-26,46,40,36,40,30,23,86,68,42,30.37,30.15,16,7,24,0.00
2012-3-27,43,43,41,35,35,33,74,72,70,30.21,30.17,12,7,21,0.00
2012-3-28,43,43,43,35,35,35,72,72,72,30.18,30.18,7,7,7,0.00
2012-3-29,43,43,43,35,35,35,72,72,72,30.18,30.18,7,7,7,0.00
2012-3-30,43,43,43,35,35,35,72,72,72,30.18,30.18,7,7,7,0.00
2012-3-31,43,43,43,35,35,35,72,72,72,30.18,30.18,7,7,7,0.00
2012-4-1,46,43,43,41,35,35,86,73,72,30.18,29.76,7,7,12,0.00
2012-4-2,64,53,45,45,43,39,88,69,47,29.91,29.76,13,7,21,0.00
2012-4-3,68,57,48,55,46,41,78,68,57,29.93,29.77,8,4,16,0.00
2012-4-4,51,51,51,43,43,43,74,74,74,29.93,29.93,6,6,6,0.00
2012-4-5,51,51,51,43,43,43,74,74,74,29.93,29.93,6,6,6,0.00
2012-4-6,51,51,51,43,43,43,74,74,74,29.93,29.93,6,6,6,0.00
2012-4-7,61,52,50,49,44,42,92,76,50,30.16,29.93,13,6,25,0.00
2012-4-8,63,52,40,47,35,26,94,58,25,30.25,30.04,14,5,30,0.01
2012-4-9,59,50,39,38,29,20,86,47,25,30.04,29.93,20,7,39,0.01
2012-4-10,46,38,31,24,21,18,62,49,35,30.17,30.03,12,5,25,0.00
2012-4-11,55,42,28,31,26,21,79,56,37,30.30,30.17,7,2,16,0.00
2012-4-12,63,48,30,35,30,26,85,52,26,30.27,30.11,7,1,13,0.00
2012-4-13,61,52,44,46,36,31,76,54,34,30.15,29.96,13,6,24,0.00
2012-4-14,73,60,51,60,52,-100,93,79,63,29.98,29.70,7,1,18,0.10
2012-4-15,73,66,60,65,62,58,98,87,73,29.74,29.44,16,5,35,1.60
2012-4-16,67,54,43,64,47,35,89,77,61,30.18,29.43,27,9,41,0.02
2012-4-17,58,47,33,40,36,31,97,69,43,30.37,30.18,5,1,12,0.01
2012-4-18,70,58,43,56,47,35,87,70,54,30.25,29.88,12,5,26,0.00
2012-4-19,60,50,42,55,47,41,98,90,78,29.97,29.71,10,3,20,0.26
2012-4-20,45,42,37,41,39,35,97,90,79,30.04,29.65,7,3,20,0.11
2012-4-21,52,43,31,37,32,-100,97,72,50,30.08,29.98,5,2,13,0.01
2012-4-22,53,45,36,35,30,27,87,60,37,30.13,29.98,10,3,20,0.00
2012-4-23,60,47,30,35,32,28,94,59,35,30.11,29.80,8,2,22,0.00
2012-4-24,66,52,37,41,35,27,84,55,30,29.80,29.64,3,0,10,0.00
2012-4-25,63,54,47,53,46,34,92,76,53,29.73,29.59,10,3,18,0.07
2012-4-26,59,50,39,47,41,31,96,74,39,30.14,29.62,7,3,17,0.01
2012-4-27,53,42,31,34,27,19,95,59,32,30.27,30.09,10,4,20,0.01
2012-4-28,48,44,40,42,37,-100,92,81,52,30.21,30.01,12,6,25,0.26
2012-4-29,55,46,38,46,40,35,94,80,52,30.25,30.01,12,5,23,0.31
2012-4-30,58,53,48,55,50,46,96,91,86,30.02,29.89,6,2,13,0.12
2012-5-1,52,50,42,50,48,41,98,93,89,29.98,29.94,6,3,12,0.00
2012-5-2,72,57,52,66,54,50,92,89,78,29.96,29.80,8,5,14,0.25
2012-5-3,85,75,69,72,67,64,91,77,54,29.83,29.77,6,1,16,0.01
2012-5-4,74,66,57,68,61,51,98,85,69,29.98,29.80,7,2,17,0.10
2012-5-5,64,58,54,58,54,-100,95,89,81,30.04,29.88,7,3,18,0.00
2012-5-6,65,59,52,61,57,51,98,92,83,29.98,29.83,14,4,23,0.01
2012-5-7,70,60,55,58,56,51,98,86,63,29.89,29.77,6,2,16,0.09
2012-5-8,68,59,50,51,47,42,92,67,41,29.87,29.81,13,5,26,0.01
2012-5-9,62,54,45,51,45,42,96,75,48,29.93,29.84,7,2,18,0.01
2012-5-10,71,56,40,48,39,33,97,59,29,30.01,29.92,6,1,12,0.00
2012-5-11,80,65,49,55,45,32,60,49,41,30.06,29.98,5,1,20,0.00
2012-5-12,68,62,54,57,50,-100,83,68,46,30.23,30.05,6,2,14,0.00
2012-5-13,75,61,47,45,40,31,81,49,20,30.25,30.09,5,1,18,0.00
2012-5-14,81,65,45,45,40,34,72,43,20,30.10,29.93,10,1,17,0.00
2012-5-15,87,70,55,58,48,42,70,47,23,29.94,29.74,14,4,28,0.01
2012-5-16,70,58,44,48,38,34,78,50,28,30.10,29.90,8,2,18,0.01
2012-5-17,75,61,42,45,39,34,80,47,27,30.14,29.98,7,3,16,0.00
2012-5-18,82,64,55,50,44,40,60,49,30,30.02,29.96,7,2,16,0.00
2012-5-19,92,84,74,64,55,-100,60,40,24,29.97,29.87,5,1,15,0.00
2012-5-20,91,77,62,66,59,50,70,56,36,30.03,29.86,13,4,22,0.00
2012-5-21,74,63,53,51,46,41,75,56,32,30.14,30.02,9,3,18,0.00
2012-5-22,76,61,43,47,42,39,94,56,26,30.09,29.87,8,1,16,0.00
2012-5-23,81,67,50,51,43,41,75,47,25,29.90,29.65,10,4,21,0.00
2012-5-24,90,78,63,65,54,44,84,45,32,29.68,29.44,13,6,30,0.14
2012-5-25,73,66,58,66,56,52,91,72,48,30.09,29.61,12,2,21,0.17
2012-5-26,79,66,57,67,58,53,94,78,60,30.25,29.97,12,5,25,0.82
2012-5-27,97,82,66,72,63,56,83,58,26,29.98,29.73,12,3,20,0.04
2012-5-28,89,80,71,68,65,61,80,61,49,29.75,29.57,10,2,26,0.00
2012-5-29,78,69,57,65,50,40,87,54,27,29.84,29.72,18,6,33,0.00
2012-5-30,66,58,51,50,46,43,88,67,46,29.98,29.83,9,3,21,0.00
2012-5-31,52,48,46,46,45,44,95,90,78,30.01,29.92,7,2,14,0.81
2012-6-1,67,56,47,48,44,40,96,69,41,29.92,29.74,9,3,20,0.12
2012-6-2,73,62,49,55,48,-100,84,63,38,29.76,29.69,10,4,21,0.01
2012-6-3,78,66,52,56,52,49,97,65,37,29.83,29.75,10,3,20,0.00
2012-6-4,69,67,61,58,56,54,88,70,63,29.84,29.78,4,1,8,0.00
2012-6-5,69,69,69,56,56,56,63,63,63,29.84,29.84,2,2,2,0.00
2012-6-6,75,68,62,49,47,46,59,49,37,30.07,30.01,3,2,6,0.00
2012-6-7,82,68,49,53,48,44,92,55,28,30.12,30.01,5,1,8,0.00
2012-6-8,88,74,58,57,53,47,76,50,31,30.04,29.85,8,2,20,0.00
2012-6-9,91,78,63,57,53,-100,73,47,28,29.89,29.78,5,1,14,0.00
2012-6-10,90,80,69,64,59,56,68,51,33,29.88,29.79,8,2,22,0.00
2012-6-11,86,81,71,70,65,57,68,59,53,29.85,29.73,9,4,18,0.10
2012-6-12,73,66,55,57,49,45,79,56,40,30.10,29.84,9,4,18,0.01
2012-6-13,75,62,48,54,48,44,94,62,41,30.17,30.06,9,2,16,0.00
2012-6-14,84,68,56,57,52,44,80,59,38,30.08,29.95,10,5,20,0.00
2012-6-15,91,78,62,62,55,51,70,46,27,30.02,29.93,8,2,17,0.00
2012-6-16,89,78,70,74,63,-100,96,64,45,29.97,29.78,10,3,24,0.45
2012-6-17,85,75,67,68,63,56,97,69,38,29.86,29.72,7,2,13,0.10
2012-6-18,93,83,71,72,69,62,84,64,48,29.73,29.56,9,2,26,0.00
2012-6-19,95,85,76,71,69,66,71,60,42,29.85,29.72,6,2,20,0.00
2012-6-20,95,85,76,71,68,65,73,59,43,29.92,29.75,7,2,23,0.00
2012-6-21,84,76,69,67,61,55,92,62,38,29.95,29.78,11,4,22,0.00
2012-6-22,85,72,56,61,54,49,93,58,31,29.99,29.90,11,2,20,0.00
2012-6-23,85,73,58,64,59,55,95,64,39,30.00,29.92,6,1,12,0.00
2012-6-24,90,77,64,66,62,58,86,63,39,29.97,29.86,6,2,14,0.00
2012-6-25,76,68,58,58,47,40,71,48,34,30.08,29.96,9,4,17,0.00
2012-6-26,84,67,50,56,50,44,85,58,31,30.06,29.88,6,2,12,0.00
2012-6-27,93,78,60,65,57,52,77,52,33,29.90,29.70,8,2,22,0.00
2012-6-28,98,88,76,79,71,55,74,60,40,29.81,29.70,7,2,20,0.00
2012-6-29,87,76,65,69,62,55,87,63,43,29.92,29.66,9,2,22,0.04
2012-6-30,94,82,66,70,66,57,97,64,31,29.81,29.74,6,2,12,0.04
2012-7-1,93,81,67,71,68,65,98,68,43,29.91,29.81,5,1,14,0.00
2012-7-2,100,86,72,75,71,65,94,65,33,29.93,29.82,9,2,18,0.00
2012-7-3,96,86,76,75,71,67,79,64,45,29.86,29.74,7,2,20,0.00
2012-7-4,101,90,78,75,73,68,83,60,36,29.83,29.76,9,3,21,0.00
2012-7-5,101,88,77,78,73,70,85,63,39,29.87,29.80,7,2,16,0.00
2012-7-6,102,90,77,77,74,69,93,63,35,29.91,29.84,8,2,18,0.00
2012-7-7,98,84,74,76,71,57,88,66,45,29.98,29.86,6,2,12,0.00
2012-7-8,88,79,71,60,57,54,67,49,32,30.05,29.96,7,2,18,0.00
2012-7-9,89,77,63,63,59,56,83,57,36,30.02,29.95,7,2,12,0.00
2012-7-10,82,74,65,61,57,47,84,56,38,30.09,30.01,7,2,18,0.00
2012-7-11,87,73,55,59,54,47,85,54,31,30.12,30.02,8,2,15,0.00
2012-7-12,93,80,66,62,59,56,87,53,30,30.06,29.96,7,2,13,0.00
2012-7-13,85,76,66,68,63,58,80,65,49,30.03,29.96,8,1,15,0.00
2012-7-14,90,79,69,71,67,65,95,70,46,30.03,29.91,7,1,14,0.08
2012-7-15,96,82,69,71,67,64,94,65,36,30.01,29.91,7,1,14,0.01
2012-7-16,98,86,74,71,69,65,89,60,35,29.95,29.77,9,2,18,0.00
2012-7-17,99,88,78,73,71,67,81,58,38,29.79,29.72,11,3,20,0.00
2012-7-18,101,82,70,75,71,67,96,73,35,29.88,29.74,12,3,26,1.02
2012-7-19,84,74,68,73,69,65,96,87,66,29.97,29.80,8,3,18,1.16
2012-7-20,83,74,66,65,63,59,95,72,46,30.07,29.97,7,2,16,0.00
2012-7-21,89,77,64,72,65,58,88,70,52,30.08,29.97,7,2,14,0.00
2012-7-22,92,78,69,72,69,66,96,76,46,30.06,29.91,5,1,12,0.01
2012-7-23,95,85,78,77,72,65,82,64,50,29.92,29.83,7,2,15,0.01
2012-7-24,82,78,70,76,74,68,94,89,77,29.95,29.83,13,1,43,0.69
2012-7-25,99,94,86,76,72,68,71,50,41,29.72,29.49,11,2,24,0.02
2012-7-26,89,80,70,74,68,58,93,69,37,29.73,29.50,20,4,41,0.01
2012-7-27,83,74,66,66,64,61,89,72,49,29.98,29.71,11,2,20,0.04
2012-7-28,85,74,62,67,63,60,97,72,43,30.10,29.98,6,1,12,0.04
2012-7-29,84,73,64,69,64,58,87,73,47,30.05,29.93,5,1,12,0.02
2012-7-30,93,81,69,71,67,62,80,64,47,29.94,29.79,7,2,15,0.01
2012-7-31,85,77,68,71,67,64,97,73,52,29.91,29.79,6,2,13,0.12
2012-8-1,91,79,65,69,66,62,95,67,40,29.93,29.79,9,1,15,0.00
2012-8-2,90,80,69,68,66,63,85,63,43,29.84,29.75,7,2,14,0.00
2012-8-3,94,81,66,72,67,62,97,66,36,29.84,29.79,6,3,12,0.00
2012-8-4,90,77,70,73,70,67,96,80,52,29.88,29.72,10,2,22,0.31
2012-8-5,82,72,62,68,60,49,95,69,32,30.12,29.87,8,2,20,0.01
2012-8-6,84,70,54,61,55,52,97,64,34,30.13,29.95,7,1,15,0.01
2012-8-7,94,78,61,66,60,56,88,58,35,29.96,29.84,8,2,18,0.00
2012-8-8,81,71,64,69,66,61,97,82,61,29.96,29.89,5,1,12,0.06
2012-8-9,71,66,61,65,63,59,97,90,78,29.91,29.85,6,1,14,0.32
2012-8-10,75,66,58,61,55,48,97,72,41,29.96,29.86,9,3,20,0.01
2012-8-11,78,65,51,55,52,48,92,66,36,30.00,29.94,7,2,15,0.00
2012-8-12,75,65,54,61,55,51,95,73,45,30.00,29.93,5,0,12,0.00
2012-8-13,72,64,59,62,60,58,96,86,67,29.96,29.91,6,1,9,0.14
2012-8-14,84,69,56,64,60,55,99,75,41,29.93,29.84,6,1,12,0.01
2012-8-15,87,74,65,66,62,59,91,70,43,29.91,29.79,6,1,15,0.00
2012-8-16,77,71,62,70,61,54,96,73,52,29.90,29.68,13,4,24,0.40
2012-8-17,76,64,53,54,51,47,92,65,37,29.99,29.90,9,2,18,0.01
2012-8-18,79,64,48,56,50,45,97,66,30,30.00,29.89,6,1,15,0.00
2012-8-19,76,65,53,57,54,51,96,71,46,29.94,29.88,6,1,14,0.00
2012-8-20,79,65,51,59,54,50,98,72,40,29.98,29.90,6,1,13,0.00
2012-8-21,81,66,49,58,51,47,98,64,31,30.06,29.98,5,1,9,0.00
2012-8-22,87,72,55,58,54,50,83,56,32,30.09,29.97,3,0,12,0.00
2012-8-23,95,79,68,62,58,53,66,49,29,30.03,29.93,6,2,15,0.01
2012-8-24,94,81,70,63,59,55,66,49,27,29.98,29.88,6,2,18,0.00
2012-8-25,93,80,67,62,60,57,79,54,32,29.98,29.91,8,2,20,0.00
2012-8-26,76,72,67,72,67,60,97,84,59,29.97,29.92,6,1,12,0.87
2012-8-27,88,76,65,71,62,53,99,69,31,30.04,29.96,7,2,21,0.03
2012-8-28,86,72,57,67,60,55,96,70,41,30.10,29.98,6,1,13,0.01
2012-8-29,88,75,64,65,63,60,87,68,46,30.05,29.93,6,2,14,0.00
2012-8-30,93,80,65,68,64,61,87,62,38,29.98,29.85,4,1,16,0.00
2012-8-31,91,80,68,71,65,56,81,63,47,30.02,29.91,8,2,20,0.00
2012-9-1,77,72,69,67,60,57,90,68,61,30.03,29.93,9,4,22,0.15
2012-9-2,86,76,69,73,68,63,90,78,64,29.93,29.83,9,4,18,0.02
2012-9-3,93,78,65,73,68,62,96,74,45,29.91,29.81,7,1,20,0.17
2012-9-4,94,80,64,74,69,60,97,74,40,29.90,29.74,7,1,21,0.55
2012-9-5,88,73,62,68,63,60,95,74,40,29.90,29.70,19,3,30,0.84
2012-9-6,82,71,61,66,59,51,98,69,36,29.91,29.79,6,1,12,0.05
2012-9-7,74,66,56,65,61,54,95,85,70,29.86,29.73,7,2,18,0.13
2012-9-8,72,61,51,56,51,48,96,73,45,29.90,29.74,12,4,23,0.14
2012-9-9,71,61,53,55,52,46,97,74,46,30.14,29.85,7,2,15,0.13
2012-9-10,79,63,47,55,50,46,96,67,38,30.19,30.04,3,0,13,0.00
2012-9-11,85,72,60,60,55,51,76,58,38,30.08,29.97,5,1,14,0.00
2012-9-12,89,75,63,64,58,46,80,59,33,30.10,30.00,5,1,14,0.00
2012-9-13,66,57,51,53,49,44,97,77,48,30.32,30.10,5,2,14,0.23
2012-9-14,77,59,43,57,47,42,99,71,32,30.34,30.24,8,1,17,0.02
2012-9-15,80,63,46,52,48,44,95,64,30,30.29,30.09,5,1,13,0.00
2012-9-16,77,64,52,55,49,46,86,61,33,30.10,29.92,3,0,14,0.00
2012-9-17,77,62,55,64,56,49,95,82,58,29.94,29.71,10,2,23,0.19
2012-9-18,61,52,42,49,40,33,94,68,35,30.01,29.82,10,3,20,0.01
2012-9-19,75,58,39,53,43,36,90,62,36,30.02,29.72,6,2,21,0.01
2012-9-20,68,59,46,52,41,32,92,56,27,29.91,29.79,14,4,24,0.01
2012-9-21,54,50,47,50,46,39,97,84,67,29.92,29.77,7,1,13,0.34
2012-9-22,58,49,42,49,41,-100,97,77,55,30.17,29.77,13,4,26,0.04
2012-9-23,60,46,35,41,36,30,98,71,32,30.26,30.17,8,2,20,0.01
2012-9-24,73,54,36,41,37,33,91,57,28,30.21,29.85,6,1,20,0.00
2012-9-25,81,64,47,55,48,41,83,59,31,29.87,29.75,7,2,14,0.00
2012-9-26,70,58,50,53,48,39,97,73,39,30.15,29.84,5,2,12,0.00
2012-9-27,63,51,39,50,44,38,95,79,58,30.23,30.15,7,2,14,0.00
2012-9-28,70,53,39,48,42,38,98,71,35,30.21,30.10,5,1,12,0.01
2012-9-29,80,60,44,48,44,41,91,60,27,30.11,29.91,6,2,13,0.01
2012-9-30,68,55,42,53,45,41,97,71,41,29.98,29.90,7,2,14,0.00
2012-10-1,67,54,41,53,45,40,96,73,45,29.93,29.80,4,0,7,0.00
2012-10-2,72,57,42,51,44,39,100,67,30,29.90,29.81,6,2,12,0.00
2012-10-3,67,57,49,57,53,48,98,86,66,29.98,29.88,2,0,6,0.00
2012-10-4,72,58,48,56,49,35,92,73,55,30.10,29.91,12,4,23,0.01
2012-10-5,51,44,37,35,30,24,80,59,37,30.13,30.05,16,6,25,0.01
2012-10-6,45,40,33,30,28,25,80,62,51,30.19,30.06,9,4,20,0.00
2012-10-7,50,42,37,30,26,21,72,53,32,30.19,30.09,7,2,21,0.00
2012-10-8,62,48,34,34,29,23,68,49,31,30.11,29.92,6,2,24,0.00
2012-10-9,63,52,43,44,39,34,94,64,46,29.93,29.76,12,3,26,0.16
2012-10-10,51,42,34,40,32,27,93,69,41,30.15,29.88,16,6,25,0.17
2012-10-11,66,50,37,42,35,29,79,58,36,30.26,30.01,12,4,26,0.01
2012-10-12,56,44,31,34,30,25,79,57,39,30.45,30.23,7,3,14,0.01
2012-10-13,64,54,44,63,50,35,98,90,67,30.23,29.72,9,3,22,0.32
2012-10-14,64,58,47,63,56,44,98,95,88,29.76,29.38,10,3,24,0.54
2012-10-15,60,49,40,44,41,38,93,76,50,29.93,29.76,7,3,14,0.01
2012-10-16,70,56,42,55,47,39,91,73,53,29.92,29.46,13,6,29,0.00
2012-10-17,69,61,53,57,53,49,97,77,62,29.47,29.26,11,3,28,0.71
2012-10-18,52,46,43,50,43,41,96,88,76,29.42,29.26,7,3,22,0.68
2012-10-19,50,45,41,48,43,39,97,93,84,29.65,29.39,6,2,18,0.29
2012-10-20,58,46,35,44,40,34,98,81,54,29.92,29.65,7,2,20,0.01
2012-10-21,68,53,40,52,46,38,94,78,56,30.00,29.90,10,4,20,0.01
2012-10-22,63,59,54,62,56,51,98,92,78,29.93,29.83,5,2,12,0.25
2012-10-23,70,63,59,68,62,58,99,95,84,29.88,29.80,7,3,17,0.11
2012-10-24,77,69,62,68,64,61,95,84,73,29.87,29.73,7,2,20,0.05
2012-10-25,72,60,42,65,56,36,94,86,78,30.06,29.57,18,6,29,0.27
2012-10-26,48,42,35,37,30,27,83,66,48,30.34,30.05,9,3,23,0.18
2012-10-27,45,36,27,30,27,24,94,70,50,30.37,30.27,6,2,14,0.00
2012-10-28,48,38,30,35,28,23,80,67,48,30.34,30.28,7,2,20,0.00
2012-10-29,50,39,29,35,27,24,91,67,36,30.34,30.11,7,2,13,0.00
2012-10-30,47,41,37,30,27,23,73,58,40,30.12,29.83,11,5,28,0.00
2012-10-31,50,39,30,34,26,18,80,61,38,29.88,29.82,9,4,21,0.00
2012-11-1,55,41,29,34,27,20,71,57,39,29.93,29.81,10,2,16,0.00
2012-11-2,45,38,28,32,30,26,95,73,53,30.17,29.93,5,2,12,0.00
2012-11-3,46,39,31,34,31,27,88,75,58,30.22,30.15,7,2,12,0.00
2012-11-4,47,38,30,33,30,27,92,75,56,30.26,30.17,6,1,12,0.00
2012-11-5,43,36,24,35,30,22,95,80,63,30.21,30.10,5,1,8,0.00
2012-11-6,39,36,30,38,34,27,97,91,81,30.11,29.86,7,2,12,0.15
2012-11-7,43,41,39,40,39,38,98,94,87,30.16,29.87,4,1,6,0.03
2012-11-8,47,42,39,40,37,34,95,82,67,30.19,30.05,5,1,12,0.01
2012-11-9,51,45,36,45,40,34,94,85,76,30.08,29.95,7,3,12,0.00
2012-11-10,66,58,49,58,52,45,93,81,66,29.98,29.77,10,5,22,0.14
2012-11-11,66,56,35,58,50,33,96,82,71,29.92,29.61,12,5,26,0.64
2012-11-12,35,29,25,33,23,19,93,78,67,30.35,29.91,13,10,29,0.41
2012-11-13,40,30,21,26,22,17,88,74,54,30.51,30.35,6,2,12,0.00
2012-11-14,47,37,30,33,28,-100,80,72,54,30.49,30.35,7,3,14,0.00
2012-11-15,51,39,30,35,31,27,88,73,51,30.37,30.29,5,1,9,0.00
2012-11-16,52,39,27,39,33,25,97,81,55,30.46,30.35,7,2,13,0.00
2012-11-17,53,42,31,38,34,30,97,76,51,30.52,30.42,7,2,12,0.00
2012-11-18,55,44,36,39,36,32,86,71,51,30.42,30.27,7,3,14,0.00
2012-11-19,55,49,42,44,40,35,79,72,63,30.28,30.07,6,2,13,0.00
2012-11-20,58,49,39,48,44,37,96,83,68,30.17,30.05,4,1,12,0.00
2012-11-21,59,45,37,49,41,36,99,89,59,30.20,30.03,3,1,12,0.01
2012-11-22,63,53,39,52,45,31,92,77,58,30.03,29.72,22,4,36,0.01
2012-11-23,39,31,27,32,22,18,75,68,63,30.24,29.87,21,11,35,0.01
2012-11-24,33,28,25,23,20,17,74,69,59,30.27,29.93,6,2,17,0.00
2012-11-25,40,33,25,26,25,21,86,72,56,30.10,29.85,6,2,14,0.00
2012-11-26,33,27,19,25,20,11,88,74,60,30.40,30.10,6,1,12,0.00
2012-11-27,33,23,11,20,14,8,90,68,50,30.43,30.25,6,1,12,0.00
2012-11-28,43,33,22,26,22,16,80,64,45,30.39,30.24,7,1,13,0.00
2012-11-29,52,41,30,36,31,25,84,69,50,30.24,30.06,6,2,12,0.00
2012-11-30,51,43,37,42,37,34,92,80,68,30.14,30.03,7,3,15,0.00
2012-12-1,58,46,33,54,44,31,98,90,82,30.12,29.83,9,2,17,0.01
2012-12-2,61,54,44,54,50,43,97,86,64,30.02,29.83,9,2,15,0.01
2012-12-3,67,57,45,63,55,44,99,93,79,30.00,29.70,9,4,21,0.32
2012-12-4,55,47,38,46,38,25,89,72,49,30.24,29.88,10,4,20,0.32
2012-12-5,37,32,25,29,24,18,85,72,62,30.45,30.19,7,4,13,0.00
2012-12-6,46,39,33,40,32,-100,88,81,74,30.20,29.88,8,4,18,0.00
2012-12-7,43,40,37,40,34,30,89,79,62,29.96,29.90,5,2,10,0.00
2012-12-8,39,35,33,33,32,30,95,88,80,30.10,29.90,7,3,13,0.02
2012-12-9,38,37,34,37,35,32,98,94,84,30.07,29.71,10,5,20,0.20
2012-12-10,35,31,29,33,28,24,96,88,76,29.95,29.71,13,5,21,0.01
2012-12-11,34,28,20,26,22,18,93,79,57,30.12,29.94,7,3,18,0.00
2012-12-12,45,36,27,30,26,22,83,69,51,30.25,30.12,6,2,17,0.00
2012-12-13,48,39,32,30,28,25,77,66,48,30.22,30.06,3,1,13,0.00
2012-12-14,49,38,28,36,31,26,92,76,57,30.18,29.97,7,3,12,0.00
2012-12-15,48,44,40,47,42,35,98,91,74,29.97,29.51,14,6,24,0.49
2012-12-16,47,41,38,46,39,34,98,91,86,29.71,29.52,13,5,22,0.06
2012-12-17,38,33,28,35,30,25,92,88,81,29.74,29.68,7,2,12,0.01
2012-12-18,36,32,28,34,30,25,97,93,88,29.86,29.58,10,3,20,0.01
2012-12-19,36,33,31,33,31,29,96,91,84,30.04,29.78,7,2,14,0.04
2012-12-20,40,35,30,39,34,28,98,97,95,29.78,29.10,13,7,26,1.24
2012-12-21,30,22,15,29,18,11,95,85,77,30.22,29.56,10,4,25,0.01
2012-12-22,30,19,8,23,16,6,93,86,69,30.24,29.97,5,0,9,0.03
2012-12-23,26,21,14,23,18,12,95,91,87,30.08,29.95,6,2,14,0.01
2012-12-24,30,25,19,28,22,16,98,88,85,30.15,29.91,6,2,12,0.00
2012-12-25,24,19,12,18,15,10,92,85,77,30.37,30.15,7,3,14,0.00
2012-12-26,28,25,21,24,22,18,91,86,81,30.27,30.07,9,4,16,0.00
2012-12-27,28,26,24,24,22,20,88,85,80,30.22,30.12,6,2,12,0.00
2012-12-28,31,29,26,29,27,23,97,92,88,30.12,29.89,6,2,10,0.00
2012-12-29,29,24,16,28,21,11,97,89,82,30.24,29.88,11,5,21,0.00
2012-12-30,33,20,9,28,16,7,92,84,74,30.35,30.04,5,1,12,0.00
2012-12-31,36,26,17,27,20,10,87,80,68,30.18,30.01,10,5,22,0.00
2013-1-1,16,11,6,10,5,2,86,78,68,30.27,30.17,6,2,12,0.00